Norwegian Epic — C6XP7 — position and weather

sailwx.info

Track history (hours):
 
Tides and Currents Weather Stations Pressure Air Temp Water Temp Dewpoint Dewpoint Depression Visibility Wind Speed Wind Dir Waves Ship Positions

Norwegian Epic

Last reported at 2015-May-28 04:33 UTC. Time now 2015-May-28 06:08 UTC.
Position N 43°33' E 010°17'.

Length 329 m; draft 9 m.

Type: Passenger vessel. MMSI: 311018500.

Date/timePositionNaut miles runAvg speedWind from/ knotsBaromVisibWave heightAir tempDewpointWater temp
2015-May-28 04:33N 43°33' E 010°17'8 8.0
2015-May-28 03:33N 43°26' E 010°12'1313.2
2015-May-28 02:33N 43°14' E 010°06'1313.1
2015-May-28 01:33N 43°01' E 010°01'1515.1
2015-May-28 00:34N 42°47' E 009°56'3314.9
2015-May-27 22:22N 42°14' E 010°04'1516.1
2015-May-27 21:27N 42°10' E 010°23'145 5.8
2015-May-26 20:31N 40°43' E 012°58'1717.1
2015-May-26 19:33N 40°41' E 013°19'1716.9
2015-May-26 18:31N 40°39' E 013°42'1616.6
2015-May-26 17:33N 40°37' E 014°03'1615.6
2015-May-26 16:33N 40°49' E 014°17'1 0.3
2015-May-26 12:33N 40°50' E 014°16'0 0.0
2015-May-26 11:28N 40°50' E 014°16'0 0.0
2015-May-26 10:28N 40°50' E 014°16'0 0.1
2015-May-26 04:24N 40°50' E 014°16'6 7.4
2015-May-26 03:33N 40°44' E 014°13'1212.3
2015-May-26 02:33N 40°38' E 013°59'1513.2
2015-May-26 01:27N 40°39' E 013°40'1213.2
2015-May-26 00:33N 40°40' E 013°24'1313.4
2015-May-25 23:33N 40°42' E 013°07'29116.1
2015-May-25 05:27N 41°17' E 006°45'13516.9
2015-May-24 21:30N 41°16' E 003°45'1516.1
2015-May-24 20:32N 41°16' E 003°25'1515.6
2015-May-24 19:33N 41°16' E 003°04'1615.6
2015-May-24 18:33N 41°15' E 002°44'1615.8
2015-May-24 17:33N 41°16' E 002°23'1110.7
2015-May-24 16:33N 41°21' E 002°10'1 1.1
2015-May-24 15:23N 41°22' E 002°11'0 0.0
2015-May-24 14:14N 41°22' E 002°11'0 0.0
2015-May-24 13:30N 41°22' E 002°11'0 0.0
2015-May-24 12:30N 41°22' E 002°11'0 0.0
2015-May-24 10:26N 41°22' E 002°11'0 0.0
2015-May-24 09:32N 41°22' E 002°11'0 0.0
2015-May-24 08:30N 41°22' E 002°11'0 0.0
2015-May-24 07:28N 41°22' E 002°11'0 0.0
2015-May-24 06:29N 41°22' E 002°11'0 0.0
2015-May-24 05:32N 41°22' E 002°11'0 0.0
2015-May-24 04:18N 41°22' E 002°11'0 0.0
2015-May-24 03:25N 41°22' E 002°11'0 0.0
2015-May-24 02:31N 41°22' E 002°11'4 4.1
2015-May-24 01:33N 41°18' E 002°11'1514.5
2015-May-24 00:33N 41°03' E 002°11'1616.0
2015-May-23 23:33N 40°47' E 002°12'1616.3
2015-May-23 22:33N 40°31' E 002°12'1616.5
2015-May-23 21:33N 40°15' E 002°12'1716.5
2015-May-23 20:33N 39°58' E 002°14'1717.5
2015-May-23 19:33N 39°41' E 002°12'1615.8
2015-May-23 18:33N 39°27' E 002°23'1212.2
2015-May-23 17:33N 39°30' E 002°38'3 2.7
2015-May-23 16:32N 39°33' E 002°38'0 0.0
2015-May-23 15:33N 39°33' E 002°38'0 0.0
2015-May-23 14:31N 39°33' E 002°38'0 0.0
2015-May-23 13:31N 39°33' E 002°38'0 0.0
2015-May-23 12:32N 39°33' E 002°38'24614.5
2015-May-22 19:33N 42°39' E 006°12'1919.3
2015-May-22 18:34N 42°52' E 006°30'1919.3
2015-May-22 17:34N 43°07' E 006°48'1918.6
2015-May-22 16:33N 43°24' E 006°58'8 8.3
2015-May-22 15:33N 43°32' E 007°01'0 0.1
2015-May-22 14:31N 43°32' E 007°01'0 0.0
2015-May-22 13:08N 43°32' E 007°01'0 0.0
2015-May-22 12:32N 43°32' E 007°01'0 0.0
2015-May-22 11:27N 43°32' E 007°01'0 0.0
2015-May-22 10:22N 43°32' E 007°01'0 0.0
2015-May-22 08:23N 43°32' E 007°01'0 0.0
2015-May-22 07:30N 43°32' E 007°01'0 0.0
2015-May-22 06:30N 43°32' E 007°01'0 0.0
2015-May-22 05:25N 43°32' E 007°01'0 0.1
2015-May-22 04:32N 43°32' E 007°01'5 5.4
2015-May-22 03:33N 43°28' E 007°05'1313.3
2015-May-22 02:33N 43°28' E 007°23'3812.7
2015-May-21 23:31N 43°30' E 008°16'1212.9
2015-May-21 22:33N 43°30' E 008°33'1615.9
2015-May-21 21:33N 43°31' E 008°55'1515.3
2015-May-21 20:33N 43°31' E 009°16'1515.2
2015-May-21 19:33N 43°32' E 009°37'1515.0
2015-May-21 18:33N 43°31' E 009°58'1313.2
2015-May-21 17:34N 43°32' E 010°16'2 1.6
2015-May-21 16:31N 43°33' E 010°18'0 0.0
2015-May-21 15:32N 43°33' E 010°18'0 0.0
2015-May-21 14:32N 43°33' E 010°18'0 0.0
2015-May-21 13:33N 43°33' E 010°18'0 0.0
2015-May-21 12:31N 43°34' E 010°18'0 0.0
2015-May-21 11:31N 43°33' E 010°18'0 0.0
2015-May-21 10:32N 43°33' E 010°18'0 0.0
2015-May-21 09:33N 43°33' E 010°18'0 0.0
2015-May-21 08:28N 43°33' E 010°18'0 0.0
2015-May-21 07:31N 43°33' E 010°18'0 0.0
2015-May-21 06:32N 43°33' E 010°18'0 0.0
2015-May-21 05:32N 43°33' E 010°18'2 1.8
2015-May-21 04:33N 43°32' E 010°16'9 9.2
2015-May-21 03:33N 43°24' E 010°11'1212.3
2015-May-21 02:33N 43°12' E 010°06'1313.3
2015-May-21 01:33N 42°59' E 010°01'2017.3
2015-May-21 00:24N 42°40' E 009°51'92 4.6
2015-May-20 04:33N 42°06' E 011°47'5 2.6
2015-May-20 02:33N 42°01' E 011°43'1414.0
2015-May-20 01:33N 41°49' E 011°53'1414.3
2015-May-20 00:33N 41°37' E 012°02'1817.7
2015-May-19 23:33N 41°22' E 012°14'1817.6
2015-May-19 22:33N 41°07' E 012°28'1717.4
2015-May-19 21:33N 40°54' E 012°43'1716.6
2015-May-19 20:33N 40°42' E 012°58'1717.0
2015-May-19 19:33N 40°41' E 013°20'1716.9
2015-May-19 18:33N 40°39' E 013°43'1616.5
2015-May-19 17:33N 40°38' E 014°04'1514.9
2015-May-19 16:34N 40°50' E 014°16'1 0.6
2015-May-19 15:31N 40°50' E 014°16'0 0.0
2015-May-19 14:32N 40°50' E 014°16'0 0.0
2015-May-19 13:23N 40°50' E 014°16'0 0.0
2015-May-19 12:24N 40°50' E 014°16'0 0.0
2015-May-19 11:22N 40°50' E 014°16'0 0.0
2015-May-19 08:09N 40°50' E 014°16'0 0.0
2015-May-19 07:33N 40°50' E 014°16'0 0.0
2015-May-19 06:31N 40°50' E 014°16'0 0.0
2015-May-19 05:32N 40°50' E 014°16'0 0.3
2015-May-19 04:32N 40°50' E 014°16'7 7.1
2015-May-19 03:33N 40°44' E 014°12'1212.2
2015-May-19 02:33N 40°38' E 013°58'1312.7
2015-May-19 01:32N 40°39' E 013°41'1212.5
2015-May-19 00:33N 40°40' E 013°25'1312.7
2015-May-18 23:33N 40°41' E 013°09'1312.7
2015-May-18 22:33N 40°43' E 012°52'1312.7
2015-May-18 21:33N 40°45' E 012°35'1313.1
2015-May-18 20:33N 40°48' E 012°19'1615.8
2015-May-18 19:33N 40°52' E 011°58'1616.0
2015-May-18 18:33N 40°56' E 011°38'1716.6
2015-May-18 17:31N 41°01' E 011°15'  
Track history (hours):
 
Tides and Currents Weather Stations Pressure Air Temp Water Temp Dewpoint Dewpoint Depression Visibility Wind Speed Wind Dir Waves Ship Positions

Norwegian Epic

Last reported at 2015-May-28 04:33 UTC. Time now 2015-May-28 06:08 UTC.
Position N 43°33' E 010°17'.

Length 329 m; draft 9 m.

Type: Passenger vessel. MMSI: 311018500.

Date/timePositionNaut miles runAvg speedWind from/ knotsBaromVisibWave heightAir tempDewpointWater temp
2015-May-28 04:33N 43°33' E 010°17'8 8.0
2015-May-28 03:33N 43°26' E 010°12'1313.2
2015-May-28 02:33N 43°14' E 010°06'1313.1
2015-May-28 01:33N 43°01' E 010°01'1515.1
2015-May-28 00:34N 42°47' E 009°56'3314.9
2015-May-27 22:22N 42°14' E 010°04'1516.1
2015-May-27 21:27N 42°10' E 010°23'145 5.8
2015-May-26 20:31N 40°43' E 012°58'1717.1
2015-May-26 19:33N 40°41' E 013°19'1716.9
2015-May-26 18:31N 40°39' E 013°42'1616.6
2015-May-26 17:33N 40°37' E 014°03'1615.6
2015-May-26 16:33N 40°49' E 014°17'1 0.3
2015-May-26 12:33N 40°50' E 014°16'0 0.0
2015-May-26 11:28N 40°50' E 014°16'0 0.0
2015-May-26 10:28N 40°50' E 014°16'0 0.1
2015-May-26 04:24N 40°50' E 014°16'6 7.4
2015-May-26 03:33N 40°44' E 014°13'1212.3
2015-May-26 02:33N 40°38' E 013°59'1513.2
2015-May-26 01:27N 40°39' E 013°40'1213.2
2015-May-26 00:33N 40°40' E 013°24'1313.4
2015-May-25 23:33N 40°42' E 013°07'29116.1
2015-May-25 05:27N 41°17' E 006°45'13516.9
2015-May-24 21:30N 41°16' E 003°45'1516.1
2015-May-24 20:32N 41°16' E 003°25'1515.6
2015-May-24 19:33N 41°16' E 003°04'1615.6
2015-May-24 18:33N 41°15' E 002°44'1615.8
2015-May-24 17:33N 41°16' E 002°23'1110.7
2015-May-24 16:33N 41°21' E 002°10'1 1.1
2015-May-24 15:23N 41°22' E 002°11'0 0.0
2015-May-24 14:14N 41°22' E 002°11'0 0.0
2015-May-24 13:30N 41°22' E 002°11'0 0.0
2015-May-24 12:30N 41°22' E 002°11'0 0.0
2015-May-24 10:26N 41°22' E 002°11'0 0.0
2015-May-24 09:32N 41°22' E 002°11'0 0.0
2015-May-24 08:30N 41°22' E 002°11'0 0.0
2015-May-24 07:28N 41°22' E 002°11'0 0.0
2015-May-24 06:29N 41°22' E 002°11'0 0.0
2015-May-24 05:32N 41°22' E 002°11'0 0.0
2015-May-24 04:18N 41°22' E 002°11'0 0.0
2015-May-24 03:25N 41°22' E 002°11'0 0.0
2015-May-24 02:31N 41°22' E 002°11'4 4.1
2015-May-24 01:33N 41°18' E 002°11'1514.5
2015-May-24 00:33N 41°03' E 002°11'1616.0
2015-May-23 23:33N 40°47' E 002°12'1616.3
2015-May-23 22:33N 40°31' E 002°12'1616.5
2015-May-23 21:33N 40°15' E 002°12'1716.5
2015-May-23 20:33N 39°58' E 002°14'1717.5
2015-May-23 19:33N 39°41' E 002°12'1615.8
2015-May-23 18:33N 39°27' E 002°23'1212.2
2015-May-23 17:33N 39°30' E 002°38'3 2.7
2015-May-23 16:32N 39°33' E 002°38'0 0.0
2015-May-23 15:33N 39°33' E 002°38'0 0.0
2015-May-23 14:31N 39°33' E 002°38'0 0.0
2015-May-23 13:31N 39°33' E 002°38'0 0.0
2015-May-23 12:32N 39°33' E 002°38'24614.5
2015-May-22 19:33N 42°39' E 006°12'1919.3
2015-May-22 18:34N 42°52' E 006°30'1919.3
2015-May-22 17:34N 43°07' E 006°48'1918.6
2015-May-22 16:33N 43°24' E 006°58'8 8.3
2015-May-22 15:33N 43°32' E 007°01'0 0.1
2015-May-22 14:31N 43°32' E 007°01'0 0.0
2015-May-22 13:08N 43°32' E 007°01'0 0.0
2015-May-22 12:32N 43°32' E 007°01'0 0.0
2015-May-22 11:27N 43°32' E 007°01'0 0.0
2015-May-22 10:22N 43°32' E 007°01'0 0.0
2015-May-22 08:23N 43°32' E 007°01'0 0.0
2015-May-22 07:30N 43°32' E 007°01'0 0.0
2015-May-22 06:30N 43°32' E 007°01'0 0.0
2015-May-22 05:25N 43°32' E 007°01'0 0.1
2015-May-22 04:32N 43°32' E 007°01'5 5.4
2015-May-22 03:33N 43°28' E 007°05'1313.3
2015-May-22 02:33N 43°28' E 007°23'3812.7
2015-May-21 23:31N 43°30' E 008°16'1212.9
2015-May-21 22:33N 43°30' E 008°33'1615.9
2015-May-21 21:33N 43°31' E 008°55'1515.3
2015-May-21 20:33N 43°31' E 009°16'1515.2
2015-May-21 19:33N 43°32' E 009°37'1515.0
2015-May-21 18:33N 43°31' E 009°58'1313.2
2015-May-21 17:34N 43°32' E 010°16'2 1.6
2015-May-21 16:31N 43°33' E 010°18'0 0.0
2015-May-21 15:32N 43°33' E 010°18'0 0.0
2015-May-21 14:32N 43°33' E 010°18'0 0.0
2015-May-21 13:33N 43°33' E 010°18'0 0.0
2015-May-21 12:31N 43°34' E 010°18'0 0.0
2015-May-21 11:31N 43°33' E 010°18'0 0.0
2015-May-21 10:32N 43°33' E 010°18'0 0.0
2015-May-21 09:33N 43°33' E 010°18'0 0.0
2015-May-21 08:28N 43°33' E 010°18'0 0.0
2015-May-21 07:31N 43°33' E 010°18'0 0.0
2015-May-21 06:32N 43°33' E 010°18'0 0.0
2015-May-21 05:32N 43°33' E 010°18'2 1.8
2015-May-21 04:33N 43°32' E 010°16'9 9.2
2015-May-21 03:33N 43°24' E 010°11'1212.3
2015-May-21 02:33N 43°12' E 010°06'1313.3
2015-May-21 01:33N 42°59' E 010°01'2017.3
2015-May-21 00:24N 42°40' E 009°51'92 4.6
2015-May-20 04:33N 42°06' E 011°47'5 2.6
2015-May-20 02:33N 42°01' E 011°43'1414.0
2015-May-20 01:33N 41°49' E 011°53'1414.3
2015-May-20 00:33N 41°37' E 012°02'1817.7
2015-May-19 23:33N 41°22' E 012°14'1817.6
2015-May-19 22:33N 41°07' E 012°28'1717.4
2015-May-19 21:33N 40°54' E 012°43'1716.6
2015-May-19 20:33N 40°42' E 012°58'1717.0
2015-May-19 19:33N 40°41' E 013°20'1716.9
2015-May-19 18:33N 40°39' E 013°43'1616.5
2015-May-19 17:33N 40°38' E 014°04'1514.9
2015-May-19 16:34N 40°50' E 014°16'1 0.6
2015-May-19 15:31N 40°50' E 014°16'0 0.0
2015-May-19 14:32N 40°50' E 014°16'0 0.0
2015-May-19 13:23N 40°50' E 014°16'0 0.0
2015-May-19 12:24N 40°50' E 014°16'0 0.0
2015-May-19 11:22N 40°50' E 014°16'0 0.0
2015-May-19 08:09N 40°50' E 014°16'0 0.0
2015-May-19 07:33N 40°50' E 014°16'0 0.0
2015-May-19 06:31N 40°50' E 014°16'0 0.0
2015-May-19 05:32N 40°50' E 014°16'0 0.3
2015-May-19 04:32N 40°50' E 014°16'7 7.1
2015-May-19 03:33N 40°44' E 014°12'1212.2
2015-May-19 02:33N 40°38' E 013°58'1312.7
2015-May-19 01:32N 40°39' E 013°41'1212.5
2015-May-19 00:33N 40°40' E 013°25'1312.7
2015-May-18 23:33N 40°41' E 013°09'1312.7
2015-May-18 22:33N 40°43' E 012°52'1312.7
2015-May-18 21:33N 40°45' E 012°35'1313.1
2015-May-18 20:33N 40°48' E 012°19'1615.8
2015-May-18 19:33N 40°52' E 011°58'1616.0
2015-May-18 18:33N 40°56' E 011°38'1716.6
2015-May-18 17:31N 41°01' E 011°15'  

Dump ship's entire track history